Time;durP1;ratioP1;P1;durP2;ratioP2;P2;SDS_P1;SDS_P2;PMS_P1;PMS_P2;Temp;Humidity;BMP_temperature;BMP_pressure;BME280_temperature;BME280_humidity;BME280_pressure;Samples;Min_cycle;Max_cycle;Signal;HPM_P1;HPM_P2
2023/05/15 00:01:19;;;;;;;;;35.00;31.50;;;;;14.32;92.23;101598.09;5072965;28;45450;-72
2023/05/15 00:03:44;;;;;;;;;40.75;34.25;;;;;14.30;92.73;101607.13;5071439;27;45411;-72
2023/05/15 00:06:10;;;;;;;;;28.50;27.25;;;;;14.14;92.94;101582.16;5062537;28;45606;-71
2023/05/15 00:08:35;;;;;;;;;45.00;35.00;;;;;14.07;91.89;101584.28;5079735;28;45427;-72
2023/05/15 00:11:00;;;;;;;;;35.75;32.00;;;;;14.13;93.61;101597.31;5069819;27;45218;-72
2023/05/15 00:13:26;;;;;;;;;38.50;34.00;;;;;14.17;93.04;101596.19;5066458;28;47309;-71
2023/05/15 00:15:51;;;;;;;;;38.75;33.50;;;;;14.10;92.14;101589.47;5060810;28;45487;-71
2023/05/15 00:18:16;;;;;;;;;37.50;34.25;;;;;14.13;93.25;101596.44;5073054;28;45560;-71
2023/05/15 00:20:42;;;;;;;;;38.50;35.00;;;;;14.05;93.72;101594.13;5068083;28;46770;-71
2023/05/15 00:23:08;;;;;;;;;41.75;36.00;;;;;14.07;94.57;101592.25;5067065;28;53052;-71
2023/05/15 00:25:33;;;;;;;;;34.25;31.50;;;;;14.05;94.62;101591.47;5061896;28;45463;-71
2023/05/15 00:27:59;;;;;;;;;37.75;32.25;;;;;14.01;94.56;101587.25;5076680;28;45510;-71
2023/05/15 00:30:24;;;;;;;;;41.00;32.25;;;;;14.00;95.08;101588.19;5074934;28;45442;-71
2023/05/15 00:32:50;;;;;;;;;35.50;31.50;;;;;13.89;94.41;101575.41;5064343;28;46415;-71
2023/05/15 00:35:15;;;;;;;;;34.00;30.00;;;;;13.92;95.11;101577.06;5060798;28;45292;-71
2023/05/15 00:37:40;;;;;;;;;41.25;36.25;;;;;13.89;96.28;101571.88;5068532;28;46822;-71
2023/05/15 00:40:09;;;;;;;;;39.50;34.75;;;;;13.86;96.17;101578.22;5059996;28;56886;-72
2023/05/15 00:42:35;;;;;;;;;42.25;36.00;;;;;13.86;96.37;101583.53;5063983;28;45406;-72
2023/05/15 00:45:01;;;;;;;;;39.50;35.50;;;;;13.82;96.49;101573.13;5069660;28;45360;-72
2023/05/15 00:47:27;;;;;;;;;47.50;37.25;;;;;13.80;97.78;101570.56;5070282;28;45491;-71
2023/05/15 00:49:54;;;;;;;;;40.25;36.00;;;;;13.76;98.04;101562.78;5072901;28;45407;-71
2023/05/15 00:52:20;;;;;;;;;44.25;38.00;;;;;13.78;97.35;101568.88;5061906;28;46382;-71
2023/05/15 00:54:45;;;;;;;;;42.00;34.25;;;;;13.72;96.47;101555.88;5064034;28;46660;-71
2023/05/15 00:57:11;;;;;;;;;41.50;35.75;;;;;13.67;97.96;101561.44;5060376;28;45544;-71
2023/05/15 00:59:39;;;;;;;;;45.00;33.25;;;;;13.71;98.56;101583.41;5059949;28;45653;-72
2023/05/15 01:02:04;;;;;;;;;46.50;36.50;;;;;13.64;97.16;101576.66;5067603;27;46467;-71
2023/05/15 01:04:30;;;;;;;;;39.00;35.50;;;;;13.64;98.45;101582.00;5069834;27;45528;-71
2023/05/15 01:06:55;;;;;;;;;47.25;37.50;;;;;13.61;98.38;101576.81;5064131;28;45346;-72
2023/05/15 01:09:26;;;;;;;;;46.00;37.25;;;;;13.56;97.68;101585.00;5071127;28;45536;-71
2023/05/15 01:11:53;;;;;;;;;39.50;36.00;;;;;13.51;99.51;101579.03;5068721;28;45638;-71
2023/05/15 01:14:19;;;;;;;;;51.75;41.00;;;;;13.48;99.57;101595.97;5065064;28;45493;-71
2023/05/15 01:16:45;;;;;;;;;48.00;38.25;;;;;13.44;100.00;101582.91;5059094;28;45359;-71
2023/05/15 01:19:10;;;;;;;;;48.25;39.00;;;;;13.41;99.33;101583.06;5068979;28;45303;-71
2023/05/15 01:21:36;;;;;;;;;44.50;37.50;;;;;13.37;100.00;101584.13;5074796;28;46272;-71
2023/05/15 01:24:11;;;;;;;;;43.75;37.50;;;;;13.34;100.00;101585.16;5073001;28;45286;-72
2023/05/15 01:27:15;;;;;;;;;49.00;41.75;;;;;13.27;99.92;101588.13;5058035;28;45482;-71
2023/05/15 01:29:46;;;;;;;;;44.75;39.00;;;;;13.17;98.44;101597.47;5062567;28;45525;-72
2023/05/15 01:32:19;;;;;;;;;53.25;41.75;;;;;13.06;98.13;101585.50;5066870;28;46480;-71
2023/05/15 01:34:57;;;;;;;;;52.00;41.75;;;;;12.76;100.00;101565.59;5062360;28;45811;-71
2023/05/15 01:37:26;;;;;;;;;50.25;42.25;;;;;12.82;100.00;101589.25;5062708;28;45401;-72
2023/05/15 01:39:57;;;;;;;;;54.00;41.75;;;;;12.77;100.00;101588.56;5059400;28;45633;-71
2023/05/15 01:42:28;;;;;;;;;53.75;39.75;;;;;12.72;100.00;101582.63;5067962;28;46123;-72
2023/05/15 01:44:54;;;;;;;;;56.25;42.75;;;;;12.65;100.00;101573.19;5073805;28;45299;-71
2023/05/15 01:47:40;;;;;;;;;50.00;40.75;;;;;12.52;100.00;101554.28;5063696;28;45309;-71
2023/05/15 01:50:10;;;;;;;;;58.75;43.25;;;;;12.73;100.00;101586.13;5069067;28;45612;-71
2023/05/15 01:52:40;;;;;;;;;55.25;42.25;;;;;12.71;100.00;101580.88;5072600;28;45358;-71
2023/05/15 01:55:07;;;;;;;;;56.25;42.25;;;;;12.69;100.00;101580.09;5076336;28;45611;-72
2023/05/15 01:57:34;;;;;;;;;54.50;43.50;;;;;12.76;100.00;101586.00;5060667;28;45469;-71
2023/05/15 02:00:00;;;;;;;;;50.25;40.75;;;;;12.74;100.00;101578.09;5070762;28;45538;-71
2023/05/15 02:02:28;;;;;;;;;51.00;40.00;;;;;12.69;100.00;101579.22;5074790;27;45517;-71
2023/05/15 02:04:54;;;;;;;;;49.25;40.00;;;;;12.69;100.00;101588.06;5069535;27;45232;-71
2023/05/15 02:07:20;;;;;;;;;55.00;41.00;;;;;12.69;100.00;101581.88;5069832;27;45280;-71
2023/05/15 02:09:47;;;;;;;;;51.50;39.75;;;;;12.66;100.00;101587.31;5073537;28;45436;-71
2023/05/15 02:12:13;;;;;;;;;57.50;41.75;;;;;12.68;100.00;101583.66;5070588;28;45766;-71
2023/05/15 02:14:40;;;;;;;;;52.00;43.25;;;;;12.72;100.00;101587.06;5076790;27;45377;-72
2023/05/15 02:17:06;;;;;;;;;46.50;38.25;;;;;12.71;100.00;101583.53;5061595;28;45535;-71
2023/05/15 02:19:31;;;;;;;;;54.00;43.00;;;;;12.66;100.00;101571.41;5071998;28;45233;-71
2023/05/15 02:21:57;;;;;;;;;52.50;43.25;;;;;12.73;100.00;101584.31;5067192;28;45435;-71
2023/05/15 02:24:22;;;;;;;;;57.00;40.25;;;;;12.60;100.00;101569.84;5058858;28;45405;-71
2023/05/15 02:27:12;;;;;;;;;56.00;40.75;;;;;12.62;100.00;101583.06;5065968;28;45386;-72
2023/05/15 02:30:08;;;;;;;;;49.50;36.75;;;;;12.62;100.00;101583.94;5058621;28;45596;-71
2023/05/15 02:32:49;;;;;;;;;53.00;40.50;;;;;12.61;100.00;101582.19;5063434;28;45566;-71
2023/05/15 02:35:39;;;;;;;;;47.75;37.75;;;;;12.59;100.00;101577.91;5065980;28;45558;-71
2023/05/15 02:38:10;;;;;;;;;54.25;41.50;;;;;12.50;100.00;101577.34;5058335;28;45358;-71
2023/05/15 02:40:36;;;;;;;;;51.50;39.75;;;;;12.47;100.00;101572.19;5058660;28;45329;-71
2023/05/15 02:43:03;;;;;;;;;54.75;43.75;;;;;12.47;100.00;101568.66;5063831;28;45493;-71
2023/05/15 02:45:30;;;;;;;;;49.25;42.00;;;;;12.41;100.00;101568.91;5063502;28;45552;-71
2023/05/15 02:47:55;;;;;;;;;51.00;41.00;;;;;12.35;100.00;101577.16;5062319;28;45449;-71
2023/05/15 02:50:21;;;;;;;;;56.75;43.75;;;;;12.33;100.00;101568.41;5058056;28;45419;-71
2023/05/15 02:52:46;;;;;;;;;54.25;41.00;;;;;12.21;100.00;101572.41;5062486;28;45387;-72
2023/05/15 02:55:12;;;;;;;;;48.75;40.00;;;;;12.13;100.00;101573.66;5071982;28;46264;-71
2023/05/15 02:57:37;;;;;;;;;33.50;32.00;;;;;12.02;100.00;101560.84;5058337;28;45469;-71
2023/05/15 03:00:06;;;;;;;;;57.25;42.00;;;;;12.01;100.00;101581.19;5070662;28;46236;-71
2023/05/15 03:02:31;;;;;;;;;44.50;37.00;;;;;11.96;100.00;101577.00;5073560;28;46039;-72
2023/05/15 03:04:56;;;;;;;;;47.50;40.00;;;;;11.82;100.00;101572.25;5084451;27;45239;-71
2023/05/15 03:07:22;;;;;;;;;52.75;40.75;;;;;11.80;100.00;101571.47;5062096;28;45453;-71
2023/05/15 03:09:47;;;;;;;;;46.25;38.25;;;;;11.79;100.00;101559.13;5068973;28;49537;-71
2023/05/15 03:12:12;;;;;;;;;47.75;40.25;;;;;11.90;100.00;101566.66;5058707;28;45784;-71
2023/05/15 03:14:38;;;;;;;;;48.25;38.75;;;;;11.98;100.00;101576.00;5070462;28;45761;-71
2023/05/15 03:17:03;;;;;;;;;49.75;39.25;;;;;11.94;100.00;101563.78;5067077;28;45375;-71
2023/05/15 03:19:30;;;;;;;;;53.00;41.25;;;;;12.01;100.00;101565.28;5062032;28;45472;-71
2023/05/15 03:21:55;;;;;;;;;47.75;40.00;;;;;11.99;100.00;101561.84;5069332;28;46211;-71
2023/05/15 03:24:20;;;;;;;;;52.75;38.75;;;;;12.05;100.00;101567.81;5064627;28;45400;-72
2023/05/15 03:26:46;;;;;;;;;51.00;39.00;;;;;12.06;100.00;101566.88;5068198;27;45414;-72
2023/05/15 03:29:12;;;;;;;;;52.25;40.00;;;;;12.05;100.00;101562.50;5060384;28;45513;-72
2023/05/15 03:31:37;;;;;;;;;53.50;39.00;;;;;11.98;100.00;101546.84;5071520;27;46293;-71
2023/05/15 03:34:02;;;;;;;;;53.25;43.00;;;;;12.02;100.00;101550.25;5074442;28;46647;-72
2023/05/15 03:36:28;;;;;;;;;48.75;39.50;;;;;12.01;100.00;101557.31;5065488;28;45507;-72
2023/05/15 03:38:53;;;;;;;;;52.00;39.50;;;;;11.99;100.00;101545.06;5061770;28;45359;-71
2023/05/15 03:41:20;;;;;;;;;46.75;40.00;;;;;12.07;100.00;101553.59;5077789;27;50001;-72
2023/05/15 03:43:46;;;;;;;;;49.50;37.50;;;;;12.06;100.00;101549.19;5065323;28;45340;-71
2023/05/15 03:46:11;;;;;;;;;46.25;34.75;;;;;11.98;100.00;101549.50;5068337;28;52111;-71
2023/05/15 03:48:36;;;;;;;;;48.50;39.00;;;;;12.02;100.00;101567.00;5067873;28;45466;-71
2023/05/15 03:51:02;;;;;;;;;53.25;43.00;;;;;11.91;100.00;101547.19;5076683;28;47976;-71
2023/05/15 03:53:27;;;;;;;;;45.50;37.50;;;;;11.99;100.00;101567.13;5073889;28;45368;-73
2023/05/15 03:55:53;;;;;;;;;60.00;44.25;;;;;11.91;100.00;101558.63;5066988;28;45343;-71
2023/05/15 03:58:18;;;;;;;;;52.25;39.75;;;;;11.89;100.00;101564.91;5074829;28;45295;-71
2023/05/15 04:00:43;;;;;;;;;52.00;40.50;;;;;11.86;100.00;101559.75;5072059;28;50444;-71
2023/05/15 04:03:09;;;;;;;;;54.75;42.00;;;;;11.83;100.00;101552.78;5065399;28;46747;-71
2023/05/15 04:05:34;;;;;;;;;52.00;41.00;;;;;11.79;100.00;101559.13;5084345;27;45351;-72
2023/05/15 04:07:59;;;;;;;;;52.00;41.25;;;;;11.76;100.00;101553.09;5060475;28;45569;-71
2023/05/15 04:10:24;;;;;;;;;54.50;42.75;;;;;11.81;100.00;101567.88;5060804;28;47331;-71
2023/05/15 04:12:50;;;;;;;;;49.00;38.75;;;;;11.73;100.00;101554.06;5069078;28;45434;-71
2023/05/15 04:15:21;;;;;;;;;47.75;36.25;;;;;11.81;100.00;101562.56;5060983;28;45388;-71
2023/05/15 04:17:49;;;;;;;;;56.50;38.00;;;;;11.77;100.00;101566.28;5072264;28;45526;-72
2023/05/15 04:20:16;;;;;;;;;54.25;41.50;;;;;11.71;100.00;101566.53;5063435;27;45462;-71
2023/05/15 04:22:42;;;;;;;;;44.50;37.00;;;;;11.70;100.00;101564.81;5062926;28;45346;-71
2023/05/15 04:25:09;;;;;;;;;53.50;41.50;;;;;11.64;100.00;101564.16;5060517;28;45553;-71
2023/05/15 04:27:35;;;;;;;;;46.75;38.50;;;;;11.62;100.00;101565.97;5073503;28;45271;-71
2023/05/15 04:30:02;;;;;;;;;51.50;42.00;;;;;11.63;100.00;101562.41;5064996;28;45422;-71
2023/05/15 04:32:27;;;;;;;;;50.00;39.75;;;;;11.58;100.00;101544.06;5065310;28;45404;-71
2023/05/15 04:34:53;;;;;;;;;43.75;36.25;;;;;11.61;100.00;101548.38;5073141;28;45283;-71
2023/05/15 04:37:18;;;;;;;;;50.25;39.25;;;;;11.67;100.00;101553.44;5069861;28;45455;-71
2023/05/15 04:39:44;;;;;;;;;51.25;38.50;;;;;11.64;100.00;101546.47;5059915;28;45383;-71
2023/05/15 04:42:09;;;;;;;;;52.25;38.75;;;;;11.63;100.00;101550.03;5064292;28;45428;-71
2023/05/15 04:44:34;;;;;;;;;42.75;37.50;;;;;11.73;100.00;101559.38;5078431;28;45428;-71
2023/05/15 04:47:00;;;;;;;;;45.75;37.75;;;;;11.74;100.00;101563.75;5072082;27;45437;-71
2023/05/15 04:49:25;;;;;;;;;49.25;40.25;;;;;11.75;100.00;101554.00;5069273;28;50791;-71
2023/05/15 04:51:50;;;;;;;;;55.00;43.00;;;;;11.77;100.00;101554.81;5059458;28;50059;-71
2023/05/15 04:54:16;;;;;;;;;53.75;38.50;;;;;11.80;100.00;101544.09;5066317;28;55177;-71
2023/05/15 04:56:41;;;;;;;;;56.00;40.00;;;;;11.84;100.00;101537.75;5063326;28;56416;-71
2023/05/15 04:59:06;;;;;;;;;46.25;38.75;;;;;11.90;100.00;101551.63;5067243;28;52578;-72
2023/05/15 05:01:32;;;;;;;;;42.25;37.25;;;;;11.91;100.00;101545.38;5072544;27;45319;-71
2023/05/15 05:03:57;;;;;;;;;51.50;39.75;;;;;11.95;100.00;101552.28;5082129;27;45448;-71
2023/05/15 05:06:23;;;;;;;;;49.50;40.75;;;;;11.98;100.00;101549.50;5079045;27;58581;-72
2023/05/15 05:08:48;;;;;;;;;40.75;33.75;;;;;11.97;100.00;101547.78;5067495;28;46256;-71
2023/05/15 05:11:13;;;;;;;;;49.25;39.75;;;;;11.98;100.00;101543.31;5063909;28;45435;-71
2023/05/15 05:13:39;;;;;;;;;46.25;37.50;;;;;12.00;100.00;101550.31;5060361;28;45470;-71
2023/05/15 05:16:04;;;;;;;;;51.25;40.50;;;;;11.88;100.00;101526.94;5076022;28;45441;-71
2023/05/15 05:18:30;;;;;;;;;56.25;40.75;;;;;12.01;100.00;101537.91;5063713;28;46937;-71
2023/05/15 05:21:02;;;;;;;;;51.50;40.75;;;;;12.04;100.00;101539.59;5060155;28;45280;-71
2023/05/15 05:23:29;;;;;;;;;52.00;42.50;;;;;12.12;100.00;101538.31;5059817;28;45398;-71
2023/05/15 05:25:54;;;;;;;;;54.50;41.75;;;;;12.14;100.00;101555.03;5071146;28;45356;-71
2023/05/15 05:28:19;;;;;;;;;50.00;41.50;;;;;12.15;100.00;101545.28;5059689;28;45512;-71
2023/05/15 05:30:45;;;;;;;;;49.00;40.00;;;;;12.18;100.00;101546.03;5068968;28;45348;-71
2023/05/15 05:33:11;;;;;;;;;48.50;38.75;;;;;12.21;100.00;101553.84;5074171;28;45224;-71
2023/05/15 05:35:36;;;;;;;;;46.25;36.75;;;;;12.15;100.00;101539.97;5062949;28;46164;-71
2023/05/15 05:38:02;;;;;;;;;38.25;33.25;;;;;12.28;100.00;101544.72;5066265;28;46162;-71
2023/05/15 05:40:27;;;;;;;;;47.25;38.25;;;;;12.28;100.00;101543.84;5074887;28;45367;-71
2023/05/15 05:42:53;;;;;;;;;45.00;36.25;;;;;12.32;100.00;101553.41;5066947;27;45283;-71
2023/05/15 05:45:18;;;;;;;;;43.25;35.75;;;;;12.27;100.00;101536.84;5072551;28;45445;-71
2023/05/15 05:47:43;;;;;;;;;48.75;38.25;;;;;12.27;100.00;101537.66;5066028;27;45546;-71
2023/05/15 05:50:09;;;;;;;;;52.75;37.00;;;;;12.37;100.00;101548.75;5070220;28;50636;-71
2023/05/15 05:52:34;;;;;;;;;52.75;40.50;;;;;12.42;100.00;101552.09;5061700;28;45372;-71
2023/05/15 05:55:00;;;;;;;;;52.50;40.50;;;;;12.42;100.00;101560.03;5063568;28;45339;-71
2023/05/15 05:57:25;;;;;;;;;39.25;32.75;;;;;12.43;100.00;101561.78;5058250;28;54043;-72
2023/05/15 05:59:51;;;;;;;;;51.00;39.75;;;;;12.39;100.00;101541.59;5066032;28;45340;-71
2023/05/15 06:02:16;;;;;;;;;53.00;42.00;;;;;12.46;100.00;101554.56;5073261;28;46166;-71
2023/05/15 06:04:41;;;;;;;;;49.75;36.00;;;;;12.43;100.00;101549.34;5062995;27;45492;-72
2023/05/15 06:07:07;;;;;;;;;47.00;33.75;;;;;12.42;100.00;101555.59;5067495;28;45379;-71
2023/05/15 06:09:33;;;;;;;;;54.00;44.00;;;;;12.45;100.00;101555.47;5067220;28;45720;-71
2023/05/15 06:11:59;;;;;;;;;50.25;39.75;;;;;12.46;100.00;101551.91;5067736;28;45630;-70
2023/05/15 06:14:25;;;;;;;;;55.25;38.50;;;;;12.55;100.00;101558.59;5065593;28;45285;-71
2023/05/15 06:16:50;;;;;;;;;44.75;36.00;;;;;12.51;100.00;101554.34;5063485;27;45464;-71
2023/05/15 06:19:16;;;;;;;;;60.00;40.50;;;;;12.51;100.00;101539.28;5073338;28;45576;-71
2023/05/15 06:21:41;;;;;;;;;50.50;38.75;;;;;12.49;100.00;101546.47;5068155;28;45419;-71
2023/05/15 06:24:06;;;;;;;;;53.75;41.75;;;;;12.59;100.00;101562.84;5066652;28;45497;-71
2023/05/15 06:26:32;;;;;;;;;50.00;39.75;;;;;12.56;100.00;101547.06;5071250;28;45436;-71
2023/05/15 06:28:57;;;;;;;;;52.75;42.25;;;;;12.62;100.00;101560.06;5066252;28;45390;-71
2023/05/15 06:31:22;;;;;;;;;51.25;40.00;;;;;12.69;100.00;101566.81;5059057;28;45334;-71
2023/05/15 06:33:48;;;;;;;;;53.00;40.00;;;;;12.70;100.00;101563.22;5065376;28;45553;-71
2023/05/15 06:36:13;;;;;;;;;45.25;36.75;;;;;12.78;100.00;101573.50;5063219;28;46002;-71
2023/05/15 06:38:38;;;;;;;;;49.75;35.50;;;;;12.80;100.00;101561.88;5071868;28;52357;-71
2023/05/15 06:41:04;;;;;;;;;50.00;38.50;;;;;12.86;100.00;101560.78;5058643;28;45366;-71
2023/05/15 06:43:29;;;;;;;;;52.50;42.25;;;;;12.92;100.00;101550.75;5059662;28;45384;-71
2023/05/15 06:45:54;;;;;;;;;44.25;38.00;;;;;12.96;100.00;101560.28;5070728;27;45379;-71
2023/05/15 06:48:20;;;;;;;;;48.75;35.50;;;;;13.03;100.00;101556.41;5081634;27;45358;-71
2023/05/15 06:50:45;;;;;;;;;50.00;34.50;;;;;12.98;100.00;101545.16;5062088;28;52676;-71
2023/05/15 06:53:10;;;;;;;;;47.00;36.00;;;;;13.02;100.00;101553.84;5059938;28;48524;-69
2023/05/15 06:55:36;;;;;;;;;46.00;36.25;;;;;13.09;100.00;101568.56;5070760;28;57951;-69
2023/05/15 06:58:03;;;;;;;;;48.00;36.75;;;;;13.11;100.00;101565.88;5058491;28;45371;-70
2023/05/15 07:00:28;;;;;;;;;52.25;37.25;;;;;13.11;100.00;101552.59;5069792;28;45422;-72
2023/05/15 07:02:53;;;;;;;;;46.25;38.00;;;;;13.12;100.00;101552.50;5063416;28;45367;-71
2023/05/15 07:05:20;;;;;;;;;37.50;31.50;;;;;13.19;100.00;101561.06;5077913;27;50417;-71
2023/05/15 07:07:46;;;;;;;;;47.25;36.50;;;;;13.29;100.00;101560.56;5058813;28;45323;-70
2023/05/15 07:10:11;;;;;;;;;39.50;35.00;;;;;13.34;100.00;101563.88;5069121;28;45427;-70
2023/05/15 07:12:36;;;;;;;;;42.25;36.00;;;;;13.38;100.00;101562.78;5068417;28;45418;-71
2023/05/15 07:15:02;;;;;;;;;32.25;29.00;;;;;13.42;100.00;101551.09;5075607;28;46079;-71
2023/05/15 07:17:27;;;;;;;;;40.25;33.00;;;;;13.46;100.00;101555.34;5077548;28;45494;-70
2023/05/15 07:19:52;;;;;;;;;38.75;35.75;;;;;13.48;100.00;101553.44;5070820;28;48008;-71
2023/05/15 07:22:18;;;;;;;;;39.25;35.25;;;;;13.52;100.00;101556.84;5061758;28;45514;-70
2023/05/15 07:24:43;;;;;;;;;33.50;31.75;;;;;13.53;100.00;101555.91;5061624;28;46089;-70
2023/05/15 07:27:09;;;;;;;;;31.50;30.25;;;;;13.56;100.00;101555.75;5062129;28;45355;-71
2023/05/15 07:29:34;;;;;;;;;38.75;32.50;;;;;13.57;100.00;101544.19;5062691;28;45317;-71
2023/05/15 07:32:00;;;;;;;;;41.50;34.00;;;;;13.50;100.00;101527.69;5082084;27;45390;-70
2023/05/15 07:34:25;;;;;;;;;38.33;33.00;;;;;13.75;100.00;101542.44;5068157;28;46531;-71
2023/05/15 07:36:50;;;;;;;;;40.25;27.00;;;;;13.74;100.00;101536.28;5070610;28;45366;-70
2023/05/15 07:39:15;;;;;;;;;35.25;32.75;;;;;13.92;100.00;101547.81;5061671;28;45373;-70
2023/05/15 07:41:41;;;;;;;;;35.00;29.00;;;;;13.93;100.00;101546.88;5060280;28;45390;-71
2023/05/15 07:44:06;;;;;;;;;45.75;36.75;;;;;13.99;100.00;101557.22;5074072;27;45377;-71
2023/05/15 07:46:32;;;;;;;;;32.25;26.50;;;;;13.97;100.00;101548.47;5071088;28;45372;-71
2023/05/15 07:48:58;;;;;;;;;34.25;31.00;;;;;14.05;100.00;101562.22;5078947;28;45282;-71
2023/05/15 07:51:23;;;;;;;;;35.50;33.00;;;;;14.07;100.00;101555.88;5070240;27;45200;-70
2023/05/15 07:53:48;;;;;;;;;33.00;28.00;;;;;14.12;100.00;101566.31;5077527;28;46022;-71
2023/05/15 07:56:14;;;;;;;;;31.33;28.00;;;;;14.16;100.00;101565.22;5081610;27;45330;-70
2023/05/15 07:58:39;;;;;;;;;32.00;29.50;;;;;14.17;100.00;101561.59;5064443;27;45269;-70
2023/05/15 08:01:05;;;;;;;;;30.50;27.50;;;;;14.17;100.00;101556.28;5061289;28;45235;-71
2023/05/15 08:03:30;;;;;;;;;34.67;30.00;;;;;14.19;100.00;101553.56;5064395;28;51062;-70
2023/05/15 08:05:55;;;;;;;;;28.33;26.33;;;;;14.22;100.00;101553.41;5080925;27;45279;-70
2023/05/15 08:08:21;;;;;;;;;38.33;31.33;;;;;14.25;100.00;101553.25;5081493;27;45289;-70
2023/05/15 08:10:46;;;;;;;;;35.67;30.00;;;;;14.36;100.00;101565.13;5081246;27;45295;-70
2023/05/15 08:13:11;;;;;;;;;40.75;33.75;;;;;14.32;100.00;101550.22;5069545;27;57461;-71
2023/05/15 08:15:37;;;;;;;;;36.67;29.67;;;;;14.35;100.00;101557.19;5070114;28;45298;-71
2023/05/15 08:18:09;;;;;;;;;38.75;33.25;;;;;14.40;100.00;101561.34;5076711;28;45294;-71
2023/05/15 08:20:35;;;;;;;;;37.00;32.67;;;;;14.35;100.00;101550.09;5071157;28;45538;-71
2023/05/15 08:23:01;;;;;;;;;37.00;31.33;;;;;14.52;100.00;101555.41;5062837;27;45322;-71
2023/05/15 08:25:26;;;;;;;;;38.50;32.50;;;;;14.62;100.00;101555.78;5060791;28;45334;-70
2023/05/15 08:27:51;;;;;;;;;40.33;34.67;;;;;14.61;100.00;101546.06;5060836;28;45253;-71
2023/05/15 08:30:17;;;;;;;;;42.25;32.50;;;;;14.67;100.00;101550.22;5060547;28;49711;-70
2023/05/15 08:32:44;;;;;;;;;36.67;31.33;;;;;14.69;100.00;101551.84;5063477;28;46006;-71
2023/05/15 08:35:10;;;;;;;;;44.25;35.25;;;;;14.76;100.00;101547.94;5074993;28;45440;-70
2023/05/15 08:37:36;;;;;;;;;40.00;34.25;;;;;14.81;100.00;101550.34;5060848;28;45296;-71
2023/05/15 08:40:04;;;;;;;;;44.75;35.75;;;;;14.83;100.00;101537.81;5060449;28;45375;-71
2023/05/15 08:42:43;;;;;;;;;47.50;34.00;;;;;14.91;100.00;101538.28;5064391;28;46875;-71
2023/05/15 08:45:09;;;;;;;;;43.50;33.75;;;;;14.95;100.00;101535.34;5072795;28;45451;-70
2023/05/15 08:47:39;;;;;;;;;45.75;36.25;;;;;15.00;100.00;101543.09;5061193;28;45467;-70
2023/05/15 08:50:12;;;;;;;;;38.25;32.25;;;;;15.06;100.00;101540.13;5059722;28;45332;-70
2023/05/15 08:52:44;;;;;;;;;47.00;35.50;;;;;15.16;100.00;101535.13;5067861;28;45442;-71
2023/05/15 08:55:10;;;;;;;;;46.67;36.67;;;;;15.26;100.00;101534.56;5065459;27;45515;-71
2023/05/15 08:57:36;;;;;;;;;43.50;35.00;;;;;15.39;100.00;101540.06;5060616;28;45388;-71
2023/05/15 09:00:07;;;;;;;;;48.00;36.00;;;;;15.53;100.00;101538.41;5061888;28;45355;-70
2023/05/15 09:02:35;;;;;;;;;45.50;34.50;;;;;15.68;99.62;101538.47;5080443;27;45482;-70
2023/05/15 09:05:01;;;;;;;;;42.33;35.67;;;;;15.69;99.91;101527.72;5063431;27;45393;-71
2023/05/15 09:07:27;;;;;;;;;38.33;31.33;;;;;15.79;98.54;101547.59;5068818;28;45407;-71
2023/05/15 09:09:53;;;;;;;;;37.67;32.00;;;;;15.87;98.93;101547.19;5066707;28;45557;-71
2023/05/15 09:12:22;;;;;;;;;41.00;34.67;;;;;15.90;97.54;101539.81;5072723;27;45391;-70
2023/05/15 09:14:48;;;;;;;;;35.00;29.00;;;;;15.83;95.36;101532.28;5078762;28;45396;-71
2023/05/15 09:17:13;;;;;;;;;38.33;34.00;;;;;15.90;96.11;101544.31;5080686;27;45345;-70
2023/05/15 09:19:39;;;;;;;;;42.50;34.75;;;;;15.85;95.74;101544.56;5062850;28;45391;-70
2023/05/15 09:22:22;;;;;;;;;44.67;33.67;;;;;15.85;96.64;101547.25;5059814;28;45930;-70
2023/05/15 09:24:48;;;;;;;;;48.00;38.75;;;;;15.92;97.01;101537.09;5065488;28;45462;-71
2023/05/15 09:27:13;;;;;;;;;41.25;34.00;;;;;15.97;97.97;101537.66;5080329;27;45354;-71
2023/05/15 09:29:39;;;;;;;;;45.00;37.00;;;;;15.98;96.48;101536.72;5078649;28;45563;-71
2023/05/15 09:32:09;;;;;;;;;45.75;36.75;;;;;15.94;95.42;101527.16;5078809;27;45491;-71
2023/05/15 09:34:37;;;;;;;;;42.50;34.75;;;;;16.00;95.10;101526.84;5065308;27;45470;-71
2023/05/15 09:37:05;;;;;;;;;48.75;37.00;;;;;16.03;96.07;101524.81;5059638;28;45378;-70
2023/05/15 09:39:31;;;;;;;;;45.75;35.75;;;;;16.10;94.26;101522.66;5065458;28;45488;-71
2023/05/15 09:42:13;;;;;;;;;49.50;37.75;;;;;16.11;94.81;101527.94;5066932;28;46454;-71
2023/05/15 09:44:44;;;;;;;;;52.75;40.25;;;;;16.15;96.67;101534.81;5066205;28;45421;-71
2023/05/15 09:47:10;;;;;;;;;48.75;37.25;;;;;16.10;94.77;101518.19;5066121;28;45311;-71
2023/05/15 09:49:36;;;;;;;;;50.25;38.25;;;;;16.07;94.26;101537.06;5079456;27;45310;-71
2023/05/15 09:52:02;;;;;;;;;47.25;38.50;;;;;15.95;94.83;101528.91;5077054;27;45291;-70
2023/05/15 09:54:30;;;;;;;;;49.00;40.00;;;;;15.88;94.75;101533.72;5059519;28;45470;-71
2023/05/15 09:56:56;;;;;;;;;49.25;39.50;;;;;15.89;97.41;101529.25;5059668;28;45515;-71
2023/05/15 09:59:21;;;;;;;;;48.25;40.00;;;;;15.96;98.16;101543.97;5059559;28;45431;-70
2023/05/15 10:01:48;;;;;;;;;51.50;40.50;;;;;15.99;98.07;101535.78;5058930;28;50102;-70
2023/05/15 10:04:15;;;;;;;;;48.25;40.00;;;;;15.97;96.14;101541.19;5059599;28;45283;-71
2023/05/15 10:06:42;;;;;;;;;48.75;40.50;;;;;16.02;95.10;101552.47;5061439;28;45301;-71
2023/05/15 10:09:09;;;;;;;;;51.75;39.25;;;;;16.01;94.26;101544.56;5079517;27;45402;-71
2023/05/15 10:11:37;;;;;;;;;48.25;34.25;;;;;16.04;93.94;101539.91;5075863;27;46368;-71
2023/05/15 10:14:04;;;;;;;;;41.25;34.25;;;;;16.12;96.55;101543.00;5065620;28;45341;-70
2023/05/15 10:16:33;;;;;;;;;46.75;37.50;;;;;16.29;97.04;101546.47;5062948;28;45508;-70
2023/05/15 10:19:02;;;;;;;;;50.50;39.75;;;;;16.42;94.92;101528.78;5068331;27;45316;-71
2023/05/15 10:21:30;;;;;;;;;47.25;38.25;;;;;16.57;95.31;101538.56;5058199;28;46220;-71
2023/05/15 10:23:58;;;;;;;;;50.00;39.25;;;;;16.72;95.73;101536.78;5059065;28;45353;-71
2023/05/15 10:26:34;;;;;;;;;48.00;36.25;;;;;16.82;91.85;101537.94;5058941;28;45398;-71
2023/05/15 10:29:01;;;;;;;;;48.75;38.25;;;;;16.86;91.18;101531.44;5059002;28;45367;-71
2023/05/15 10:31:27;;;;;;;;;51.50;40.00;;;;;16.96;89.96;101538.81;5058358;28;46041;-71
2023/05/15 10:33:54;;;;;;;;;50.25;41.00;;;;;16.99;90.51;101543.97;5071570;28;45354;-71
2023/05/15 10:36:20;;;;;;;;;43.00;35.75;;;;;17.00;88.73;101542.16;5058498;28;45327;-70
2023/05/15 10:38:46;;;;;;;;;41.00;35.50;;;;;17.03;90.90;101540.16;5071997;28;45485;-71
2023/05/15 10:41:14;;;;;;;;;50.00;40.25;;;;;17.11;93.33;101534.34;5058637;28;45476;-71
2023/05/15 10:43:40;;;;;;;;;44.25;36.00;;;;;17.23;89.78;101540.72;5062976;28;45393;-71
2023/05/15 10:46:07;;;;;;;;;45.67;35.00;;;;;17.32;91.11;101534.78;5069341;28;45407;-71
2023/05/15 10:48:34;;;;;;;;;42.00;34.50;;;;;17.34;90.75;101539.06;5071943;28;45514;-71
2023/05/15 10:51:02;;;;;;;;;47.50;38.50;;;;;17.39;88.19;101528.09;5065613;28;46168;-71
2023/05/15 10:53:28;;;;;;;;;44.50;36.75;;;;;17.43;92.25;101524.25;5077478;28;45335;-71
2023/05/15 10:55:53;;;;;;;;;46.00;36.50;;;;;17.45;89.90;101525.00;5058778;28;45472;-71
2023/05/15 10:58:22;;;;;;;;;44.00;36.00;;;;;17.43;88.47;101529.63;5059951;28;45576;-71
2023/05/15 11:00:48;;;;;;;;;47.00;36.33;;;;;17.31;88.64;101514.38;5070111;27;47237;-71
2023/05/15 11:03:14;;;;;;;;;45.67;33.67;;;;;17.27;90.32;101524.38;5073906;28;45380;-71